createdAt,value
2022-09-15T00:00:54.384Z,80.79
2022-09-15T00:03:23.428Z,80.90
2022-09-15T00:05:52.809Z,80.75
2022-09-15T00:08:19.868Z,80.88
2022-09-15T00:11:04.162Z,81.02
2022-09-15T00:13:31.177Z,80.80
2022-09-15T00:15:58.146Z,81.22
2022-09-15T00:18:25.711Z,80.92
2022-09-15T00:20:52.779Z,81.01
2022-09-15T00:23:19.765Z,80.92
2022-09-15T00:25:49.726Z,81.16
2022-09-15T00:28:20.263Z,80.99
2022-09-15T00:30:50.278Z,80.91
2022-09-15T00:33:18.339Z,80.94
2022-09-15T00:35:47.277Z,80.57
2022-09-15T00:38:15.927Z,81.10
2022-09-15T00:40:55.341Z,80.49
2022-09-15T00:43:53.001Z,80.58
2022-09-15T00:46:26.146Z,81.10
2022-09-15T00:49:05.730Z,81.07
2022-09-15T00:51:50.874Z,80.68
2022-09-15T00:54:40.083Z,80.90
2022-09-15T00:57:14.454Z,80.73
2022-09-15T00:59:42.892Z,80.90
2022-09-15T01:02:16.244Z,80.82
2022-09-15T01:04:43.595Z,81.18
2022-09-15T01:07:15.296Z,80.78
2022-09-15T01:09:59.939Z,80.93
2022-09-15T01:12:28.092Z,80.95
2022-09-15T01:14:55.070Z,81.01
2022-09-15T01:17:21.973Z,80.85
2022-09-15T01:20:33.599Z,80.98
2022-09-15T01:23:24.833Z,81.22
2022-09-15T01:25:55.109Z,80.81
2022-09-15T01:28:59.341Z,80.71
2022-09-15T01:32:15.774Z,80.54
2022-09-15T01:35:03.921Z,80.81
2022-09-15T01:37:36.944Z,80.83
2022-09-15T01:40:06.818Z,80.69
2022-09-15T01:42:34.988Z,80.67
2022-09-15T01:45:09.017Z,80.69
2022-09-15T01:47:37.181Z,80.82
2022-09-15T01:50:07.651Z,80.74
2022-09-15T01:52:35.442Z,80.59
2022-09-15T01:55:14.095Z,80.74
2022-09-15T01:57:41.103Z,81.14
2022-09-15T02:00:09.161Z,80.85
2022-09-15T02:02:42.068Z,80.87
2022-09-15T02:05:26.279Z,81.04
2022-09-15T02:08:05.230Z,80.90
2022-09-15T02:10:44.021Z,81.05
2022-09-15T02:13:17.234Z,80.75
2022-09-15T02:15:58.197Z,80.91
2022-09-15T02:18:39.891Z,80.97
2022-09-15T02:21:18.479Z,80.95
2022-09-15T02:23:58.975Z,81.09
2022-09-15T02:26:29.389Z,80.96
2022-09-15T02:29:00.028Z,80.85
2022-09-15T02:31:28.275Z,80.97
2022-09-15T02:34:00.543Z,81.43
2022-09-15T02:36:30.350Z,81.43
2022-09-15T02:39:08.256Z,81.21
2022-09-15T02:41:36.734Z,81.44
2022-09-15T02:44:03.972Z,81.77
2022-09-15T02:46:30.851Z,81.47
2022-09-15T02:48:57.896Z,81.59
2022-09-15T02:51:27.476Z,81.55
2022-09-15T02:53:54.468Z,81.40
2022-09-15T02:56:22.398Z,80.36
2022-09-15T02:58:49.280Z,80.24
2022-09-15T03:01:16.375Z,79.80
2022-09-15T03:03:45.234Z,79.97
2022-09-15T03:06:21.298Z,79.98
2022-09-15T03:08:58.850Z,79.63
2022-09-15T03:11:28.403Z,79.17
2022-09-15T03:14:00.555Z,79.08
2022-09-15T03:16:29.766Z,79.07
2022-09-15T03:18:59.430Z,79.43
2022-09-15T03:21:29.575Z,79.24
2022-09-15T03:23:58.493Z,79.24
2022-09-15T03:26:25.620Z,79.21
2022-09-15T03:28:52.617Z,79.15
2022-09-15T03:31:20.000Z,78.79
2022-09-15T03:33:47.468Z,79.00
2022-09-15T03:36:14.562Z,78.88
2022-09-15T03:38:41.930Z,78.98
2022-09-15T03:41:11.695Z,78.47
2022-09-15T03:43:39.211Z,78.77
2022-09-15T03:46:07.471Z,78.34
2022-09-15T03:48:35.960Z,78.41
2022-09-15T03:51:04.586Z,78.94
2022-09-15T03:53:34.372Z,78.77
2022-09-15T03:56:31.434Z,78.88
2022-09-15T03:59:01.774Z,78.23
2022-09-15T04:01:30.512Z,78.09
2022-09-15T04:04:05.771Z,77.89
2022-09-15T04:06:32.679Z,78.07
2022-09-15T04:09:02.572Z,78.47
2022-09-15T04:11:34.171Z,78.22
2022-09-15T04:14:03.318Z,78.26
2022-09-15T04:16:30.304Z,77.77
2022-09-15T04:18:58.063Z,78.09
2022-09-15T04:21:26.840Z,78.11
2022-09-15T04:23:54.767Z,77.57
2022-09-15T04:26:27.712Z,77.66
2022-09-15T04:28:54.756Z,77.51
2022-09-15T04:31:21.728Z,77.09
2022-09-15T04:33:51.663Z,77.44
2022-09-15T04:36:21.711Z,77.34
2022-09-15T04:38:49.127Z,77.08
2022-09-15T04:41:17.444Z,76.78
2022-09-15T04:43:44.701Z,76.51
2022-09-15T04:46:13.100Z,76.74
2022-09-15T04:48:40.273Z,77.06
2022-09-15T04:51:11.633Z,77.05
2022-09-15T04:53:38.809Z,76.95
2022-09-15T04:56:11.752Z,76.79
2022-09-15T04:58:41.103Z,76.77
2022-09-15T05:01:22.354Z,77.23
2022-09-15T05:03:49.430Z,76.92
2022-09-15T05:06:19.058Z,77.37
2022-09-15T05:08:50.443Z,76.87
2022-09-15T05:11:18.169Z,76.92
2022-09-15T05:13:45.529Z,76.66
2022-09-15T05:16:15.336Z,76.83
2022-09-15T05:18:46.062Z,76.78
2022-09-15T05:21:15.494Z,76.89
2022-09-15T05:23:42.706Z,77.28
2022-09-15T05:26:13.156Z,76.92
2022-09-15T05:28:40.119Z,76.43
2022-09-15T05:31:13.260Z,76.68
2022-09-15T05:33:40.687Z,76.34
2022-09-15T05:36:07.680Z,76.06
2022-09-15T05:38:34.915Z,76.54
2022-09-15T05:41:04.076Z,76.42
2022-09-15T05:43:32.772Z,76.64
2022-09-15T05:46:00.570Z,76.70
2022-09-15T05:48:28.242Z,76.47
2022-09-15T05:50:55.864Z,76.72
2022-09-15T05:53:24.029Z,76.79
2022-09-15T05:56:00.866Z,77.01
2022-09-15T05:58:28.169Z,76.71
2022-09-15T06:00:55.726Z,76.66
2022-09-15T06:03:27.464Z,76.49
2022-09-15T06:06:04.893Z,76.97
2022-09-15T06:08:43.924Z,76.98
2022-09-15T06:11:13.907Z,76.43
2022-09-15T06:13:41.424Z,76.57
2022-09-15T06:16:30.430Z,76.38
2022-09-15T06:19:02.200Z,76.59
2022-09-15T06:21:31.103Z,76.13
2022-09-15T06:24:07.411Z,76.03
2022-09-15T06:26:34.875Z,76.31
2022-09-15T06:29:04.175Z,76.24
2022-09-15T06:31:33.153Z,76.23
2022-09-15T06:34:00.845Z,75.95
2022-09-15T06:36:29.773Z,76.07
2022-09-15T06:38:57.398Z,75.81
2022-09-15T06:41:24.589Z,75.50
2022-09-15T06:43:52.300Z,75.27
2022-09-15T06:46:22.674Z,75.12
2022-09-15T06:48:51.275Z,75.03
2022-09-15T06:51:20.595Z,74.40
2022-09-15T06:53:47.712Z,74.30
2022-09-15T06:56:23.656Z,74.41
2022-09-15T06:58:50.720Z,75.25
2022-09-15T07:01:26.598Z,74.80
2022-09-15T07:03:54.538Z,74.29
2022-09-15T07:06:22.595Z,75.06
2022-09-15T07:08:50.252Z,74.17
2022-09-15T07:11:18.433Z,74.25
2022-09-15T07:13:45.990Z,73.70
2022-09-15T07:16:13.480Z,73.54
2022-09-15T07:18:43.222Z,73.40
2022-09-15T07:21:14.015Z,74.18
2022-09-15T07:23:41.570Z,74.01
2022-09-15T07:26:16.004Z,73.52
2022-09-15T07:28:45.755Z,73.52
2022-09-15T07:31:20.470Z,73.09
2022-09-15T07:33:48.129Z,73.47
2022-09-15T07:36:15.658Z,72.78
2022-09-15T07:38:48.022Z,72.61
2022-09-15T07:41:17.032Z,72.69
2022-09-15T07:43:51.709Z,72.35
2022-09-15T07:46:20.867Z,72.41
2022-09-15T07:48:49.699Z,72.45
2022-09-15T07:51:17.718Z,71.82
2022-09-15T07:53:48.930Z,71.60
2022-09-15T07:56:18.760Z,71.84
2022-09-15T07:58:46.903Z,71.69
2022-09-15T08:01:17.420Z,72.10
2022-09-15T08:03:49.041Z,72.63
2022-09-15T08:06:24.220Z,72.72
2022-09-15T08:08:55.224Z,72.56
2022-09-15T08:11:26.768Z,72.17
2022-09-15T08:13:53.793Z,72.56
2022-09-15T08:16:23.798Z,72.64
2022-09-15T08:18:52.910Z,72.65
2022-09-15T08:21:21.233Z,72.11
2022-09-15T08:23:53.030Z,72.06
2022-09-15T08:26:20.249Z,71.59
2022-09-15T08:28:47.664Z,71.31
2022-09-15T08:31:15.418Z,70.96
2022-09-15T08:33:45.651Z,70.85
2022-09-15T08:36:13.781Z,70.83
2022-09-15T08:38:44.257Z,70.57
2022-09-15T08:41:17.259Z,70.57
2022-09-15T08:44:08.242Z,70.02
2022-09-15T08:46:59.745Z,70.13
2022-09-15T08:49:50.583Z,69.70
2022-09-15T08:52:40.667Z,70.01
2022-09-15T08:55:15.919Z,69.17
2022-09-15T08:57:42.901Z,69.13
2022-09-15T09:00:16.827Z,68.99
2022-09-15T09:03:05.525Z,69.29
2022-09-15T09:05:40.783Z,68.69
2022-09-15T09:08:22.448Z,68.30
2022-09-15T09:10:53.684Z,68.31
2022-09-15T09:13:36.599Z,67.99
2022-09-15T09:16:31.364Z,67.78
2022-09-15T09:19:44.941Z,67.85
2022-09-15T09:22:15.829Z,67.82
2022-09-15T09:24:53.414Z,67.44
2022-09-15T09:27:24.957Z,67.54
2022-09-15T09:30:15.292Z,68.08
2022-09-15T09:32:53.496Z,67.84
2022-09-15T09:35:32.293Z,67.79
2022-09-15T09:38:00.282Z,68.38
2022-09-15T09:40:28.288Z,68.49
2022-09-15T09:42:55.344Z,68.84
2022-09-15T09:45:23.089Z,68.34
2022-09-15T09:47:50.239Z,67.76
2022-09-15T09:50:38.885Z,67.91
2022-09-15T09:53:31.485Z,67.31
2022-09-15T09:56:14.336Z,66.93
2022-09-15T09:58:42.064Z,67.13
2022-09-15T10:01:18.295Z,67.56
2022-09-15T10:03:46.071Z,66.73
2022-09-15T10:06:20.767Z,66.19
2022-09-15T10:08:59.502Z,65.27
2022-09-15T10:15:55.769Z,64.79
2022-09-15T10:18:35.836Z,64.57
2022-09-15T10:21:06.067Z,64.41
2022-09-15T10:23:34.305Z,64.33
2022-09-15T10:26:16.257Z,64.11
2022-09-15T10:28:44.615Z,63.87
2022-09-15T10:31:22.148Z,64.31
2022-09-15T10:33:49.245Z,64.22
2022-09-15T10:36:23.325Z,63.90
2022-09-15T10:39:05.918Z,64.39
2022-09-15T10:41:39.812Z,64.51
2022-09-15T10:44:33.267Z,64.33
2022-09-15T10:47:09.442Z,64.59
2022-09-15T10:50:00.557Z,64.64
2022-09-15T10:52:28.121Z,65.08
2022-09-15T10:55:16.310Z,64.96
2022-09-15T10:57:49.240Z,65.46
2022-09-15T11:00:21.164Z,66.07
2022-09-15T11:02:57.256Z,66.32
2022-09-15T11:05:27.074Z,65.93
2022-09-15T11:08:22.851Z,66.55
2022-09-15T11:11:06.286Z,66.09
2022-09-15T11:13:58.722Z,66.23
2022-09-15T11:16:38.936Z,66.59
2022-09-15T11:19:22.681Z,66.92
2022-09-15T11:22:12.680Z,66.08
2022-09-15T11:25:03.808Z,66.88
2022-09-15T11:27:42.721Z,67.31
2022-09-15T11:30:22.244Z,67.39
2022-09-15T11:32:59.563Z,67.45
2022-09-15T11:36:19.651Z,67.06
2022-09-15T11:43:24.926Z,66.98
2022-09-15T11:46:45.477Z,67.13
2022-09-15T11:49:26.126Z,67.33
2022-09-15T11:52:04.766Z,67.05
2022-09-15T11:54:51.248Z,67.32
2022-09-15T11:57:28.379Z,67.19
2022-09-15T12:00:05.028Z,67.78
2022-09-15T12:02:43.955Z,67.59
2022-09-15T12:05:29.238Z,67.83
2022-09-15T12:08:04.894Z,67.69
2022-09-15T12:10:45.820Z,66.90
2022-09-15T12:13:18.994Z,66.54
2022-09-15T12:15:47.801Z,65.88
2022-09-15T12:18:38.539Z,65.75
2022-09-15T12:21:15.970Z,65.33
2022-09-15T12:23:57.718Z,64.89
2022-09-15T12:26:27.044Z,64.70
2022-09-15T12:29:02.760Z,64.11
2022-09-15T12:31:41.827Z,64.01
2022-09-15T12:34:38.614Z,63.96
2022-09-15T12:37:14.207Z,63.56
2022-09-15T12:39:41.195Z,63.35
2022-09-15T12:42:10.844Z,63.37
2022-09-15T12:44:47.894Z,63.46
2022-09-15T12:47:26.789Z,63.58
2022-09-15T12:49:58.128Z,63.33
2022-09-15T12:52:25.712Z,62.09
2022-09-15T12:55:02.577Z,62.07
2022-09-15T12:57:37.161Z,61.55
2022-09-15T13:00:37.974Z,61.14
2022-09-15T13:03:26.292Z,60.84
2022-09-15T13:06:11.738Z,60.72
2022-09-15T13:08:38.599Z,61.06
2022-09-15T13:11:15.725Z,61.32
2022-09-15T13:13:51.168Z,61.02
2022-09-15T13:16:41.300Z,60.88
2022-09-15T13:19:17.309Z,61.50
2022-09-15T13:21:54.287Z,60.81
2022-09-15T13:24:29.067Z,61.30
2022-09-15T13:26:57.326Z,61.78
2022-09-15T13:29:25.778Z,62.60
2022-09-15T13:32:08.752Z,63.99
2022-09-15T13:40:34.033Z,65.09
2022-09-15T13:43:21.572Z,65.78
2022-09-15T13:45:51.267Z,66.16
2022-09-15T13:48:21.233Z,66.29
2022-09-15T13:51:01.698Z,66.22
2022-09-15T13:53:45.987Z,66.85
2022-09-15T13:56:23.848Z,66.34
2022-09-15T13:58:56.354Z,66.46
2022-09-15T14:01:28.205Z,66.30
2022-09-15T14:04:07.341Z,65.77
2022-09-15T14:06:40.579Z,65.26
2022-09-15T14:09:20.401Z,66.06
2022-09-15T14:11:50.328Z,65.97
2022-09-15T14:14:35.200Z,66.13
2022-09-15T14:17:02.619Z,66.01
2022-09-15T14:19:35.542Z,65.68
2022-09-15T14:22:24.940Z,65.57
2022-09-15T14:24:52.840Z,65.42
2022-09-15T14:27:24.476Z,65.63
2022-09-15T14:29:57.865Z,65.12
2022-09-15T14:32:28.076Z,65.34
2022-09-15T14:34:59.096Z,65.56
2022-09-15T14:37:31.736Z,66.77
2022-09-15T14:40:00.895Z,65.70
2022-09-15T14:42:32.665Z,65.72
2022-09-15T14:48:01.460Z,66.65
2022-09-15T14:50:33.176Z,66.25
2022-09-15T14:53:22.234Z,65.80
2022-09-15T14:56:04.371Z,65.50
2022-09-15T14:58:54.784Z,65.57
2022-09-15T15:01:42.989Z,65.43
2022-09-15T15:04:43.693Z,65.82
2022-09-15T15:07:32.450Z,65.97
2022-09-15T15:10:02.140Z,65.03
2022-09-15T15:12:40.921Z,65.07
2022-09-15T15:15:12.574Z,64.96
2022-09-15T15:17:43.903Z,65.08
2022-09-15T15:20:10.914Z,64.77
2022-09-15T15:22:39.796Z,63.57
2022-09-15T15:25:29.294Z,63.98
2022-09-15T15:28:00.562Z,63.63
2022-09-15T15:30:30.874Z,64.34
2022-09-15T15:33:19.704Z,64.29
2022-09-15T15:35:48.634Z,64.25
2022-09-15T15:38:17.802Z,64.34
2022-09-15T15:40:45.603Z,64.43
2022-09-15T15:43:29.050Z,63.91
2022-09-15T15:46:01.412Z,64.85
2022-09-15T15:48:38.144Z,64.75
2022-09-15T15:51:09.462Z,64.88
2022-09-15T15:53:36.415Z,65.13
2022-09-15T15:56:03.463Z,65.74
2022-09-15T15:58:30.520Z,65.52
2022-09-15T16:00:57.950Z,65.83
2022-09-15T16:03:32.189Z,65.84
2022-09-15T16:06:00.371Z,65.73
2022-09-15T16:08:31.121Z,66.39
2022-09-15T16:11:09.198Z,66.43
2022-09-15T16:13:36.409Z,66.42
2022-09-15T16:16:16.803Z,66.74
2022-09-15T16:18:52.039Z,67.22
2022-09-15T16:21:37.501Z,67.05
2022-09-15T16:24:05.633Z,67.23
2022-09-15T16:26:35.691Z,67.96
2022-09-15T16:29:02.808Z,67.61
2022-09-15T16:31:30.674Z,67.56
2022-09-15T16:33:57.606Z,67.50
2022-09-15T16:36:26.206Z,67.87
2022-09-15T16:38:53.655Z,67.79
2022-09-15T16:41:23.601Z,67.88
2022-09-15T16:43:50.656Z,68.38
2022-09-15T16:46:17.675Z,68.16
2022-09-15T16:48:47.273Z,68.65
2022-09-15T16:51:27.386Z,69.03
2022-09-15T16:53:56.945Z,69.21
2022-09-15T16:56:23.966Z,69.18
2022-09-15T16:58:58.933Z,69.45
2022-09-15T17:01:27.752Z,70.13
2022-09-15T17:03:54.964Z,69.96
2022-09-15T17:06:22.363Z,70.46
2022-09-15T17:08:49.717Z,70.40
2022-09-15T17:11:19.254Z,70.38
2022-09-15T17:13:47.127Z,70.46
2022-09-15T17:16:19.416Z,70.58
2022-09-15T17:18:47.013Z,70.76
2022-09-15T17:21:16.434Z,71.10
2022-09-15T17:23:46.256Z,71.18
2022-09-15T17:26:17.663Z,70.84
2022-09-15T17:28:44.620Z,70.99
2022-09-15T17:31:16.063Z,71.24
2022-09-15T17:33:43.871Z,71.50
2022-09-15T17:36:15.085Z,71.29
2022-09-15T17:38:49.022Z,71.79
2022-09-15T17:41:18.378Z,71.51
2022-09-15T17:43:45.654Z,71.68
2022-09-15T17:46:13.045Z,71.55
2022-09-15T17:48:40.275Z,71.50
2022-09-15T17:51:08.071Z,71.87
2022-09-15T17:53:39.930Z,71.96
2022-09-15T17:56:07.167Z,71.81
2022-09-15T17:58:34.489Z,71.93
2022-09-15T18:01:03.955Z,72.36
2022-09-15T18:03:37.271Z,72.56
2022-09-15T18:06:11.148Z,72.63
2022-09-15T18:08:38.184Z,72.85
2022-09-15T18:11:11.270Z,73.27
2022-09-15T18:13:38.155Z,73.46
2022-09-15T18:16:07.393Z,73.50
2022-09-15T18:18:34.495Z,73.46
2022-09-15T18:21:01.988Z,73.56
2022-09-15T18:23:29.736Z,73.92
2022-09-15T18:25:57.734Z,73.61
2022-09-15T18:28:24.954Z,73.55
2022-09-15T18:30:52.180Z,73.96
2022-09-15T18:33:24.304Z,73.67
2022-09-15T18:35:53.849Z,73.83
2022-09-15T18:38:22.001Z,73.70
2022-09-15T18:40:55.441Z,74.06
2022-09-15T18:43:25.224Z,73.76
2022-09-15T18:45:55.182Z,73.92
2022-09-15T18:48:22.290Z,74.18
2022-09-15T18:50:49.346Z,74.17
2022-09-15T18:53:16.221Z,74.19
2022-09-15T18:55:43.952Z,74.20
2022-09-15T18:58:11.788Z,74.60
2022-09-15T19:00:38.839Z,74.31
2022-09-15T19:03:14.172Z,74.53
2022-09-15T19:05:41.625Z,74.25
2022-09-15T19:08:09.459Z,74.66
2022-09-15T19:10:39.880Z,74.60
2022-09-15T19:13:11.553Z,74.33
2022-09-15T19:15:44.203Z,74.75
2022-09-15T19:18:11.733Z,74.90
2022-09-15T19:20:38.684Z,74.95
2022-09-15T19:23:05.624Z,75.22
2022-09-15T19:25:32.735Z,75.01
2022-09-15T19:27:59.872Z,74.80
2022-09-15T19:30:26.991Z,75.26
2022-09-15T19:32:54.137Z,75.68
2022-09-15T19:35:22.000Z,75.53
2022-09-15T19:37:49.434Z,75.81
2022-09-15T19:40:17.462Z,75.41
2022-09-15T19:42:45.756Z,75.62
2022-09-15T19:45:13.355Z,75.87
2022-09-15T19:47:40.775Z,76.25
2022-09-15T19:50:10.098Z,75.77
2022-09-15T19:52:37.271Z,76.06
2022-09-15T19:55:06.821Z,76.54
2022-09-15T19:57:33.870Z,76.42
2022-09-15T20:00:00.765Z,75.90
2022-09-15T20:02:28.125Z,76.31
2022-09-15T20:04:55.227Z,76.56
2022-09-15T20:07:22.202Z,76.90
2022-09-15T20:09:49.312Z,76.54
2022-09-15T20:12:16.450Z,76.75
2022-09-15T20:14:43.352Z,77.24
2022-09-15T20:17:11.069Z,77.12
2022-09-15T20:19:38.370Z,76.98
2022-09-15T20:22:05.363Z,77.45
2022-09-15T20:24:32.303Z,77.09
2022-09-15T20:26:59.578Z,77.42
2022-09-15T20:29:26.484Z,76.81
2022-09-15T20:31:53.991Z,77.15
2022-09-15T20:34:20.967Z,77.18
2022-09-15T20:36:48.203Z,77.71
2022-09-15T20:39:16.124Z,77.26
2022-09-15T20:41:46.382Z,76.66
2022-09-15T20:44:14.590Z,76.81
2022-09-15T20:46:41.913Z,77.45
2022-09-15T20:49:10.212Z,77.19
2022-09-15T20:51:37.139Z,77.05
2022-09-15T20:54:04.452Z,77.02
2022-09-15T20:56:35.112Z,77.14
2022-09-15T20:59:04.699Z,77.48
2022-09-15T21:01:37.392Z,77.34
2022-09-15T21:04:08.517Z,77.71
2022-09-15T21:06:36.641Z,78.20
2022-09-15T21:09:07.108Z,78.05
2022-09-15T21:11:34.591Z,77.87
2022-09-15T21:14:02.299Z,77.61
2022-09-15T21:16:29.722Z,77.99
2022-09-15T21:18:58.661Z,77.39
2022-09-15T21:21:30.360Z,77.84
2022-09-15T21:24:04.273Z,77.31
2022-09-15T21:26:34.313Z,77.55
2022-09-15T21:29:04.345Z,76.98
2022-09-15T21:31:33.444Z,77.17
2022-09-15T21:34:00.496Z,77.53
2022-09-15T21:36:31.619Z,77.23
2022-09-15T21:38:59.641Z,77.22
2022-09-15T21:41:30.085Z,77.61
2022-09-15T21:43:59.206Z,77.72
2022-09-15T21:46:29.423Z,77.85
2022-09-15T21:48:58.516Z,77.85
2022-09-15T21:51:27.736Z,77.59
2022-09-15T21:53:56.263Z,77.86
2022-09-15T21:56:24.449Z,78.12
2022-09-15T21:58:51.931Z,78.36
2022-09-15T22:01:21.816Z,78.09
2022-09-15T22:03:51.724Z,78.82
2022-09-15T22:06:20.938Z,78.64
2022-09-15T22:08:48.675Z,78.73
2022-09-15T22:11:16.090Z,78.51
2022-09-15T22:13:44.784Z,78.92
2022-09-15T22:16:16.911Z,79.12
2022-09-15T22:18:44.398Z,79.27
2022-09-15T22:21:19.934Z,79.17
2022-09-15T22:23:49.034Z,79.02
2022-09-15T22:26:28.243Z,79.32
2022-09-15T22:28:55.967Z,79.58
2022-09-15T22:31:24.490Z,79.97
2022-09-15T22:33:51.791Z,79.90
2022-09-15T22:36:24.073Z,79.67
2022-09-15T22:38:55.773Z,80.19
2022-09-15T22:41:27.418Z,80.42
2022-09-15T22:43:54.368Z,80.42
2022-09-15T22:46:23.171Z,80.59
2022-09-15T22:48:52.796Z,80.34
2022-09-15T22:51:19.882Z,80.77
2022-09-15T22:53:47.168Z,80.45
2022-09-15T22:56:23.370Z,80.50
2022-09-15T22:58:52.440Z,80.88
2022-09-15T23:01:22.005Z,81.04
2022-09-15T23:03:53.540Z,80.76
2022-09-15T23:06:21.941Z,80.78
2022-09-15T23:08:58.145Z,81.12
2022-09-15T23:11:26.534Z,80.96
2022-09-15T23:13:55.244Z,81.01
2022-09-15T23:16:24.340Z,80.59
2022-09-15T23:18:52.431Z,80.97
2022-09-15T23:21:20.475Z,81.05
2022-09-15T23:23:49.026Z,80.32
2022-09-15T23:26:18.547Z,81.34
2022-09-15T23:28:45.610Z,81.05
2022-09-15T23:31:13.673Z,80.90
2022-09-15T23:33:41.352Z,81.53
2022-09-15T23:36:11.723Z,80.66
2022-09-15T23:38:40.762Z,81.25
2022-09-15T23:41:08.928Z,81.43
2022-09-15T23:43:36.090Z,81.53
2022-09-15T23:46:04.166Z,81.64
2022-09-15T23:48:32.683Z,81.38
2022-09-15T23:51:00.373Z,81.12
2022-09-15T23:53:27.802Z,81.08
2022-09-15T23:55:55.311Z,81.35
2022-09-15T23:58:22.306Z,81.77
